createdAt,value
2019-05-29T00:00:20.104Z,-145
2019-05-29T00:00:50.134Z,-149
2019-05-29T00:01:21.655Z,-149
2019-05-29T00:01:50.186Z,-151
2019-05-29T00:02:20.491Z,-151
2019-05-29T00:02:50.199Z,-148
2019-05-29T00:03:20.159Z,-148
2019-05-29T00:03:50.174Z,-172
2019-05-29T00:04:23.300Z,-172
2019-05-29T00:04:50.374Z,-155
2019-05-29T00:05:20.555Z,-148
2019-05-29T00:05:50.417Z,-148
2019-05-29T00:06:20.244Z,-146
2019-05-29T00:06:50.303Z,-149
2019-05-29T00:07:20.402Z,-148
2019-05-29T00:07:50.308Z,-147
2019-05-29T00:08:20.632Z,-146
2019-05-29T00:08:50.573Z,-149
2019-05-29T00:09:20.488Z,-146
2019-05-29T00:09:50.661Z,-146
2019-05-29T00:10:20.826Z,-149
2019-05-29T00:10:50.402Z,-147
2019-05-29T00:11:20.465Z,-147
2019-05-29T00:11:50.580Z,-147
2019-05-29T00:12:21.176Z,-147
2019-05-29T00:12:50.811Z,-149
2019-05-29T00:13:20.787Z,-146
2019-05-29T00:13:50.722Z,-147
2019-05-29T00:14:26.716Z,-148
2019-05-29T00:14:50.702Z,-150
2019-05-29T00:15:24.057Z,-147
2019-05-29T00:15:50.566Z,-148
2019-05-29T00:16:20.591Z,-147
2019-05-29T00:16:50.702Z,-146
2019-05-29T00:17:20.685Z,-146
2019-05-29T00:17:50.590Z,-150
2019-05-29T00:18:20.614Z,-146
2019-05-29T00:18:50.565Z,-147
2019-05-29T00:19:20.641Z,-147
2019-05-29T00:19:50.678Z,-146
2019-05-29T00:20:20.744Z,-146
2019-05-29T00:20:50.820Z,-146
2019-05-29T00:21:20.742Z,-146
2019-05-29T00:21:50.723Z,-149
2019-05-29T00:22:20.819Z,-147
2019-05-29T00:22:50.756Z,-146
2019-05-29T00:23:20.675Z,-147
2019-05-29T00:23:50.734Z,-145
2019-05-29T00:24:21.088Z,-146
2019-05-29T00:24:51.022Z,-146
2019-05-29T00:25:21.082Z,-146
2019-05-29T00:25:51.226Z,-146
2019-05-29T00:25:51.384Z,-146
2019-05-29T00:26:22.804Z,-147
2019-05-29T00:26:51.369Z,-147
2019-05-29T00:27:21.088Z,-147
2019-05-29T00:27:50.950Z,-146
2019-05-29T00:28:20.970Z,-144
2019-05-29T00:28:50.979Z,-144
2019-05-29T00:29:21.060Z,-146
2019-05-29T00:29:51.176Z,-145
2019-05-29T00:33:21.366Z,-148
2019-05-29T00:34:21.338Z,-147
2019-05-29T00:34:51.474Z,-147
2019-05-29T00:37:21.476Z,-147
2019-05-29T00:40:21.381Z,-149
2019-05-29T00:40:51.352Z,-147
2019-05-29T00:41:51.436Z,-146
2019-05-29T00:42:21.359Z,-148
2019-05-29T00:42:51.474Z,-148
2019-05-29T00:43:21.357Z,-148
2019-05-29T00:43:51.335Z,-148
2019-05-29T00:44:33.408Z,-146
2019-05-29T00:44:51.598Z,-146
2019-05-29T00:45:21.629Z,-149
2019-05-29T00:45:51.574Z,-149
2019-05-29T00:46:21.691Z,-149
2019-05-29T00:46:51.633Z,-147
2019-05-29T00:47:21.648Z,-148
2019-05-29T00:47:51.515Z,-149
2019-05-29T00:48:51.546Z,-147
2019-05-29T00:49:21.673Z,-148
2019-05-29T00:49:51.665Z,-149
2019-05-29T00:50:21.750Z,-149
2019-05-29T00:50:51.713Z,-149
2019-05-29T00:51:21.794Z,-149
2019-05-29T00:51:51.690Z,-149
2019-05-29T00:52:21.638Z,-149
2019-05-29T00:52:51.688Z,-149
2019-05-29T00:53:21.817Z,-151
2019-05-29T00:53:51.755Z,-151
2019-05-29T00:54:21.822Z,-149
2019-05-29T00:54:52.057Z,-150
2019-05-29T00:55:21.839Z,-150
2019-05-29T00:55:51.841Z,-148
2019-05-29T00:56:21.710Z,-149
2019-05-29T00:56:51.768Z,-148
2019-05-29T00:57:21.778Z,-148
2019-05-29T00:57:51.736Z,-148
2019-05-29T00:58:21.796Z,-151
2019-05-29T00:58:52.071Z,-148
2019-05-29T00:59:21.728Z,-151
2019-05-29T00:59:51.780Z,-151
2019-05-29T01:00:21.847Z,-151
2019-05-29T01:00:51.773Z,-151
2019-05-29T01:01:21.829Z,-152
2019-05-29T01:01:51.893Z,-152
2019-05-29T01:02:22.041Z,-151
2019-05-29T01:02:51.935Z,-151
2019-05-29T01:03:21.963Z,-150
2019-05-29T01:03:51.988Z,-150
2019-05-29T01:04:21.970Z,-149
2019-05-29T01:04:51.939Z,-149
2019-05-29T01:05:22.040Z,-151
2019-05-29T01:05:52.042Z,-148
2019-05-29T01:06:22.038Z,-148
2019-05-29T01:06:52.348Z,-151
2019-05-29T01:07:22.231Z,-151
2019-05-29T01:07:52.070Z,-151
2019-05-29T01:08:22.053Z,-149
2019-05-29T01:08:52.070Z,-148
2019-05-29T01:09:22.470Z,-151
2019-05-29T01:10:22.244Z,-151
2019-05-29T01:10:52.490Z,-149
2019-05-29T01:11:22.520Z,-150
2019-05-29T01:11:52.346Z,-150
2019-05-29T01:12:22.293Z,-148
2019-05-29T01:12:52.514Z,-148
2019-05-29T01:13:22.313Z,-150
2019-05-29T01:13:52.466Z,-150
2019-05-29T01:14:22.491Z,-149
2019-05-29T01:14:52.749Z,-151
2019-05-29T01:15:22.557Z,-151
2019-05-29T01:15:52.491Z,-151
2019-05-29T01:16:22.454Z,-149
2019-05-29T01:16:52.501Z,-149
2019-05-29T01:17:22.410Z,-148
2019-05-29T01:17:52.374Z,-151
2019-05-29T01:18:22.473Z,-150
2019-05-29T01:18:52.486Z,-150
2019-05-29T01:19:22.400Z,-151
2019-05-29T01:19:52.478Z,-150
2019-05-29T01:20:22.620Z,-150
2019-05-29T01:21:22.521Z,-149
2019-05-29T01:21:52.509Z,-149
2019-05-29T01:22:22.593Z,-151
2019-05-29T01:22:52.585Z,-151
2019-05-29T01:23:22.597Z,-150
2019-05-29T01:23:52.554Z,-149
2019-05-29T01:24:22.733Z,-150
2019-05-29T01:24:52.604Z,-153
2019-05-29T01:25:22.765Z,-153
2019-05-29T01:25:52.818Z,-150
2019-05-29T01:26:22.896Z,-151
2019-05-29T01:26:52.795Z,-151
2019-05-29T01:27:52.707Z,-151
2019-05-29T01:28:23.084Z,-150
2019-05-29T01:28:52.757Z,-150
2019-05-29T01:29:23.394Z,-151
2019-05-29T01:29:52.981Z,-151
2019-05-29T01:30:23.377Z,-149
2019-05-29T01:30:52.956Z,-148
2019-05-29T01:31:52.834Z,-151
2019-05-29T01:32:23.708Z,-151
2019-05-29T01:32:52.854Z,-148
2019-05-29T01:33:23.676Z,-149
2019-05-29T01:33:52.956Z,-149
2019-05-29T01:34:23.949Z,-148
2019-05-29T01:34:53.014Z,-148
2019-05-29T01:35:52.996Z,-149
2019-05-29T01:36:24.117Z,-147
2019-05-29T01:37:24.049Z,-146
2019-05-29T01:37:53.061Z,-149
2019-05-29T01:38:23.463Z,-146
2019-05-29T01:38:52.984Z,-146
2019-05-29T01:39:23.479Z,-149
2019-05-29T01:39:53.047Z,-149
2019-05-29T01:40:26.399Z,-149
2019-05-29T01:40:53.129Z,-148
2019-05-29T01:41:23.505Z,-148
2019-05-29T01:42:53.184Z,-149
2019-05-29T01:43:23.583Z,-148
2019-05-29T01:43:53.188Z,-148
2019-05-29T01:44:23.679Z,-147
2019-05-29T01:45:06.921Z,-146
2019-05-29T01:46:23.957Z,-148
2019-05-29T01:47:53.393Z,-149
2019-05-29T01:48:23.682Z,-149
2019-05-29T01:48:53.433Z,-147
2019-05-29T01:49:23.756Z,-149
2019-05-29T01:50:53.702Z,-148
2019-05-29T01:51:23.834Z,-147
2019-05-29T01:51:53.501Z,-147
2019-05-29T01:52:53.625Z,-150
2019-05-29T01:53:53.642Z,-149
2019-05-29T01:54:23.839Z,-146
2019-05-29T01:54:53.687Z,-147
2019-05-29T01:55:53.680Z,-148
2019-05-29T01:56:23.872Z,-146
2019-05-29T01:56:53.703Z,-146
2019-05-29T01:57:23.847Z,-146
2019-05-29T01:57:53.728Z,-146
2019-05-29T01:58:23.918Z,-146
2019-05-29T01:58:53.738Z,-148
2019-05-29T01:59:23.995Z,-149
2019-05-29T01:59:53.662Z,-149
2019-05-29T02:00:24.163Z,-145
2019-05-29T02:00:53.790Z,-149
2019-05-29T02:01:53.785Z,-149
2019-05-29T02:02:23.999Z,-149
2019-05-29T02:02:53.759Z,-147
2019-05-29T02:03:24.047Z,-148
2019-05-29T02:03:53.891Z,-150
2019-05-29T02:04:53.907Z,-147
2019-05-29T02:05:24.162Z,-167
2019-05-29T02:05:53.974Z,-147
2019-05-29T02:06:24.124Z,-147
2019-05-29T02:06:54.106Z,-145
2019-05-29T02:07:24.208Z,-145
2019-05-29T02:08:24.304Z,-145
2019-05-29T02:08:54.076Z,-146
2019-05-29T02:09:24.307Z,-146
2019-05-29T02:09:54.223Z,-144
2019-05-29T02:10:24.372Z,-146
2019-05-29T02:10:54.127Z,-146
2019-05-29T02:11:24.321Z,-145
2019-05-29T02:11:54.410Z,-146
2019-05-29T02:12:24.408Z,-146
2019-05-29T02:12:54.216Z,-145
2019-05-29T02:13:24.138Z,-147
2019-05-29T02:13:54.229Z,-145
2019-05-29T02:14:24.812Z,-145
2019-05-29T02:14:54.310Z,-146
2019-05-29T02:15:54.485Z,-144
2019-05-29T02:16:24.851Z,-144
2019-05-29T02:16:54.235Z,-144
2019-05-29T02:17:24.224Z,-144
2019-05-29T02:17:54.249Z,-146
2019-05-29T02:18:25.077Z,-143
2019-05-29T02:18:54.244Z,-145
2019-05-29T02:19:24.251Z,-146
2019-05-29T02:19:54.377Z,-146
2019-05-29T02:20:25.180Z,-146
2019-05-29T02:20:54.288Z,-146
2019-05-29T02:21:24.336Z,-144
2019-05-29T02:21:54.375Z,-145
2019-05-29T02:22:25.040Z,-144
2019-05-29T02:22:54.439Z,-144
2019-05-29T02:23:24.460Z,-146
2019-05-29T02:23:54.480Z,-143
2019-05-29T02:24:25.407Z,-145
2019-05-29T02:24:54.405Z,-143
2019-05-29T02:25:24.528Z,-143
2019-05-29T02:25:54.565Z,-145
2019-05-29T02:26:54.650Z,-147
2019-05-29T02:27:25.552Z,-146
2019-05-29T02:27:54.724Z,-146
2019-05-29T02:28:24.665Z,-146
2019-05-29T02:28:54.584Z,-145
2019-05-29T02:29:24.895Z,-144
2019-05-29T02:29:54.551Z,-144
2019-05-29T02:30:27.353Z,-146
2019-05-29T02:30:55.085Z,-145
2019-05-29T02:31:26.504Z,-145
2019-05-29T02:31:54.691Z,-147
2019-05-29T02:32:25.509Z,-147
2019-05-29T02:32:54.662Z,-143
2019-05-29T02:33:26.247Z,-143
2019-05-29T02:33:54.761Z,-146
2019-05-29T02:34:25.416Z,-143
2019-05-29T02:34:54.945Z,-143
2019-05-29T02:35:26.755Z,-144
2019-05-29T02:35:54.815Z,-144
2019-05-29T02:36:26.305Z,-143
2019-05-29T02:36:54.756Z,-143
2019-05-29T02:37:54.810Z,-145
2019-05-29T02:38:25.475Z,-147
2019-05-29T02:38:54.830Z,-147
2019-05-29T02:39:25.569Z,-145
2019-05-29T02:39:54.769Z,-145
2019-05-29T02:40:25.799Z,-145
2019-05-29T02:40:54.846Z,-146
2019-05-29T02:41:26.138Z,-144
2019-05-29T02:41:54.931Z,-145
2019-05-29T02:42:25.214Z,-145
2019-05-29T02:42:55.004Z,-144
2019-05-29T02:43:25.896Z,-145
2019-05-29T02:43:54.977Z,-144
2019-05-29T02:44:25.392Z,-144
2019-05-29T02:44:55.129Z,-143
2019-05-29T02:45:37.331Z,-143
2019-05-29T02:45:55.331Z,-143
2019-05-29T02:46:26.354Z,-143
2019-05-29T02:46:55.303Z,-145
2019-05-29T02:47:55.339Z,-146
2019-05-29T02:48:26.903Z,-145
2019-05-29T02:49:25.801Z,-145
2019-05-29T02:49:55.208Z,-145
2019-05-29T02:50:26.399Z,-147
2019-05-29T02:50:55.394Z,-147
2019-05-29T02:51:26.450Z,-144
2019-05-29T02:51:55.415Z,-147
2019-05-29T02:52:26.281Z,-147
2019-05-29T02:52:55.308Z,-146
2019-05-29T02:53:26.168Z,-147
2019-05-29T02:53:55.388Z,-145
2019-05-29T02:54:27.181Z,-145
2019-05-29T02:54:55.430Z,-148
2019-05-29T02:55:26.834Z,-144
2019-05-29T02:55:55.541Z,-144
2019-05-29T02:56:26.896Z,-144
2019-05-29T02:56:55.391Z,-146
2019-05-29T02:57:26.738Z,-148
2019-05-29T02:57:55.403Z,-146
2019-05-29T02:58:27.077Z,-146
2019-05-29T02:58:55.408Z,-147
2019-05-29T02:59:25.976Z,-147
2019-05-29T02:59:55.447Z,-149
2019-05-29T03:00:26.086Z,-149
2019-05-29T03:01:25.581Z,-146
2019-05-29T03:01:55.460Z,-146
2019-05-29T03:02:25.634Z,-148
2019-05-29T03:02:55.537Z,-148
2019-05-29T03:03:26.465Z,-146
2019-05-29T03:03:55.805Z,-147
2019-05-29T03:04:26.197Z,-146
2019-05-29T03:04:55.608Z,-146
2019-05-29T03:05:25.980Z,-146
2019-05-29T03:05:55.594Z,-146
2019-05-29T03:06:26.182Z,-147
2019-05-29T03:06:55.740Z,-146
2019-05-29T03:07:26.383Z,-148
2019-05-29T03:07:55.828Z,-146
2019-05-29T03:08:27.028Z,-146
2019-05-29T03:08:55.647Z,-148
2019-05-29T03:09:26.549Z,-147
2019-05-29T03:09:55.960Z,-146
2019-05-29T03:10:26.647Z,-146
2019-05-29T03:10:55.877Z,-146
2019-05-29T03:11:27.030Z,-147
2019-05-29T03:12:27.047Z,-147
2019-05-29T03:12:55.802Z,-147
2019-05-29T03:13:27.164Z,-148
2019-05-29T03:13:55.873Z,-148
2019-05-29T03:14:27.160Z,-147
2019-05-29T03:14:55.960Z,-147
2019-05-29T03:15:27.303Z,-150
2019-05-29T03:16:09.234Z,-147
2019-05-29T03:16:26.617Z,-148
2019-05-29T03:16:55.892Z,-148
2019-05-29T03:17:27.702Z,-145
2019-05-29T03:17:55.844Z,-147
2019-05-29T03:18:25.949Z,-147
2019-05-29T03:18:55.856Z,-147
2019-05-29T03:19:26.022Z,-147
2019-05-29T03:19:55.913Z,-146
2019-05-29T03:20:26.151Z,-146
2019-05-29T03:20:55.943Z,-147
2019-05-29T03:21:26.127Z,-147
2019-05-29T03:21:55.911Z,-145
2019-05-29T03:22:26.306Z,-145
2019-05-29T03:23:26.570Z,-147
2019-05-29T03:23:56.074Z,-148
2019-05-29T03:24:56.114Z,-149
2019-05-29T03:25:26.530Z,-149
2019-05-29T03:25:56.069Z,-147
2019-05-29T03:26:27.501Z,-147
2019-05-29T03:26:56.142Z,-146
2019-05-29T03:27:27.746Z,-144
2019-05-29T03:27:56.434Z,-144
2019-05-29T03:28:27.531Z,-146
2019-05-29T03:28:56.284Z,-146
2019-05-29T03:29:27.641Z,-147
2019-05-29T03:29:56.296Z,-145
2019-05-29T03:30:27.745Z,-147
2019-05-29T03:30:56.512Z,-148
2019-05-29T03:31:28.033Z,-147
2019-05-29T03:31:56.438Z,-147
2019-05-29T03:32:27.887Z,-146
2019-05-29T03:32:56.343Z,-147
2019-05-29T03:33:28.064Z,-147
2019-05-29T03:33:56.320Z,-146
2019-05-29T03:34:56.469Z,-148
2019-05-29T03:35:28.083Z,-147
2019-05-29T03:35:56.688Z,-146
2019-05-29T03:36:28.264Z,-146
2019-05-29T03:36:56.415Z,-145
2019-05-29T03:37:27.793Z,-147
2019-05-29T03:37:58.735Z,-146
2019-05-29T03:38:28.087Z,-147
2019-05-29T03:38:56.481Z,-147
2019-05-29T03:39:26.777Z,-147
2019-05-29T03:39:56.515Z,-146
2019-05-29T03:40:27.049Z,-146
2019-05-29T03:40:56.570Z,-148
2019-05-29T03:41:27.823Z,-147
2019-05-29T03:41:56.541Z,-144
2019-05-29T03:42:27.849Z,-145
2019-05-29T03:42:56.557Z,-147
2019-05-29T03:43:28.408Z,-145
2019-05-29T03:43:56.589Z,-143
2019-05-29T03:44:28.553Z,-146
2019-05-29T03:44:56.602Z,-146
2019-05-29T03:45:27.288Z,-146
2019-05-29T03:46:30.986Z,-147
2019-05-29T03:46:56.742Z,-145
2019-05-29T03:47:26.960Z,-146
2019-05-29T03:47:56.986Z,-147
2019-05-29T03:48:27.760Z,-147
2019-05-29T03:48:56.694Z,-147
2019-05-29T03:49:26.860Z,-147
2019-05-29T03:49:56.680Z,-147
2019-05-29T03:50:28.896Z,-146
2019-05-29T03:50:56.824Z,-145
2019-05-29T03:51:27.671Z,-145
2019-05-29T03:51:57.087Z,-146
2019-05-29T03:52:28.287Z,-145
2019-05-29T03:52:56.833Z,-146
2019-05-29T03:53:27.106Z,-146
2019-05-29T03:53:56.858Z,-147
2019-05-29T03:54:28.312Z,-147
2019-05-29T03:54:57.089Z,-146
2019-05-29T03:55:27.262Z,-146
2019-05-29T03:55:56.988Z,-147
2019-05-29T03:56:28.202Z,-147
2019-05-29T03:57:27.635Z,-146
2019-05-29T03:57:56.898Z,-146
2019-05-29T03:58:28.685Z,-147
2019-05-29T03:58:57.019Z,-146
2019-05-29T03:59:28.462Z,-145
2019-05-29T03:59:56.970Z,-145
2019-05-29T04:00:31.533Z,-143
2019-05-29T04:00:57.020Z,-145
2019-05-29T04:01:28.914Z,-145
2019-05-29T04:01:56.997Z,-145
2019-05-29T04:02:28.540Z,-142
2019-05-29T04:02:57.043Z,-147
2019-05-29T04:03:28.509Z,-144
2019-05-29T04:03:57.245Z,-144
2019-05-29T04:04:27.537Z,-145
2019-05-29T04:04:57.192Z,-146
2019-05-29T04:05:28.702Z,-158
2019-05-29T04:05:57.169Z,-155
2019-05-29T04:06:28.908Z,-168
2019-05-29T04:06:28.908Z,-155
2019-05-29T04:06:57.334Z,-145
2019-05-29T04:07:29.131Z,-146
2019-05-29T04:07:29.131Z,-145
2019-05-29T04:08:28.879Z,-145
2019-05-29T04:08:28.879Z,-145
2019-05-29T04:08:57.342Z,-145
2019-05-29T04:09:27.273Z,-147
2019-05-29T04:09:27.280Z,-147
2019-05-29T04:09:57.271Z,-145
2019-05-29T04:10:28.801Z,-145
2019-05-29T04:10:57.419Z,-146
2019-05-29T04:11:28.861Z,-146
2019-05-29T04:11:57.609Z,-147
2019-05-29T04:12:28.955Z,-147
2019-05-29T04:12:29.330Z,-145
2019-05-29T04:12:57.516Z,-147
2019-05-29T04:13:27.638Z,-147
2019-05-29T04:13:27.639Z,-146
2019-05-29T04:13:57.543Z,-146
2019-05-29T04:14:27.676Z,-146
2019-05-29T04:14:57.672Z,-146
2019-05-29T04:15:29.264Z,-147
2019-05-29T04:15:57.677Z,-147
2019-05-29T04:16:29.198Z,-147
2019-05-29T04:16:59.949Z,-148
2019-05-29T04:17:29.277Z,-136
2019-05-29T04:17:29.277Z,-137
2019-05-29T04:17:57.557Z,-137
2019-05-29T04:18:27.694Z,-148
2019-05-29T04:18:27.694Z,-148
2019-05-29T04:19:27.798Z,-137
2019-05-29T04:19:27.799Z,-136
2019-05-29T04:19:57.713Z,-136
2019-05-29T04:20:27.721Z,-138
2019-05-29T04:20:57.634Z,-137
2019-05-29T04:21:27.959Z,-148
2019-05-29T04:21:27.959Z,-148
2019-05-29T04:21:57.676Z,-148
2019-05-29T04:22:28.178Z,-144
2019-05-29T04:22:57.690Z,-131
2019-05-29T04:23:27.895Z,-133
2019-05-29T04:23:57.741Z,-132
2019-05-29T04:24:28.014Z,-130
2019-05-29T04:24:57.680Z,-134
2019-05-29T04:25:31.662Z,-134
2019-05-29T04:25:57.754Z,-130
2019-05-29T04:26:27.971Z,-129
2019-05-29T04:26:57.743Z,-126
2019-05-29T04:27:28.045Z,-129
2019-05-29T04:27:58.079Z,-129
2019-05-29T04:28:28.074Z,-124
2019-05-29T04:28:57.956Z,-125
2019-05-29T04:30:29.549Z,-129
2019-05-29T04:30:58.088Z,-128
2019-05-29T04:31:28.190Z,-124
2019-05-29T04:32:29.598Z,-123
2019-05-29T04:33:30.069Z,-126
2019-05-29T04:34:29.556Z,-122
2019-05-29T04:34:58.202Z,-122
2019-05-29T04:35:28.335Z,-122
2019-05-29T04:35:58.330Z,-122
2019-05-29T04:36:28.630Z,-122
2019-05-29T04:36:28.751Z,-122
2019-05-29T04:36:58.350Z,-123
2019-05-29T04:37:28.498Z,-123
2019-05-29T04:37:28.500Z,-121
2019-05-29T04:37:58.459Z,-147
2019-05-29T04:38:28.681Z,-146
2019-05-29T04:38:58.214Z,-134
2019-05-29T04:39:28.493Z,-120
2019-05-29T04:39:58.206Z,-120
2019-05-29T04:40:28.646Z,-118
2019-05-29T04:40:58.345Z,-120
2019-05-29T04:41:58.528Z,-125
2019-05-29T04:42:29.049Z,-122
2019-05-29T04:42:58.274Z,-122
2019-05-29T04:43:28.727Z,-125
2019-05-29T04:43:58.311Z,-125
2019-05-29T04:44:28.787Z,-122
2019-05-29T04:44:58.569Z,-123
2019-05-29T04:45:28.912Z,-125
2019-05-29T04:45:58.436Z,-122
2019-05-29T04:46:29.858Z,-122
2019-05-29T04:47:09.890Z,-124
2019-05-29T04:47:28.852Z,-123
2019-05-29T04:47:58.584Z,-123
2019-05-29T04:48:29.321Z,-123
2019-05-29T04:48:58.780Z,-120
2019-05-29T04:49:29.325Z,-148
2019-05-29T04:49:58.591Z,-148
2019-05-29T04:50:29.109Z,-124
2019-05-29T04:50:58.489Z,-120
2019-05-29T04:51:29.073Z,-124
2019-05-29T04:51:58.705Z,-125
2019-05-29T04:53:29.398Z,-120
2019-05-29T04:53:58.857Z,-122
2019-05-29T04:54:29.255Z,-120
2019-05-29T04:54:58.799Z,-120
2019-05-29T04:55:28.814Z,-145
2019-05-29T04:55:58.768Z,-150
2019-05-29T04:56:28.857Z,-123
2019-05-29T04:56:59.012Z,-121
2019-05-29T04:57:29.286Z,-122
2019-05-29T04:57:59.232Z,-121
2019-05-29T04:58:28.951Z,-119
2019-05-29T04:58:58.816Z,-118
2019-05-29T04:59:28.901Z,-118
2019-05-29T04:59:58.867Z,-116
2019-05-29T05:00:29.046Z,-113
2019-05-29T05:00:59.595Z,-112
2019-05-29T05:01:29.053Z,-111
2019-05-29T05:01:58.878Z,-108
2019-05-29T05:02:28.976Z,-108
2019-05-29T05:02:58.847Z,-109
2019-05-29T05:03:29.341Z,-107
2019-05-29T05:03:59.240Z,-112
2019-05-29T05:04:29.181Z,-107
2019-05-29T05:04:58.970Z,-105
2019-05-29T05:05:29.161Z,-107
2019-05-29T05:05:59.016Z,-106
2019-05-29T05:06:29.142Z,-108
2019-05-29T05:06:58.978Z,-107
2019-05-29T05:07:29.680Z,-105
2019-05-29T05:07:59.007Z,-104
2019-05-29T05:08:29.372Z,-100
2019-05-29T05:08:59.226Z,-104
2019-05-29T05:09:29.326Z,-104
2019-05-29T05:09:59.400Z,-99
2019-05-29T05:10:29.364Z,-96
2019-05-29T05:10:59.205Z,-96
2019-05-29T05:11:29.410Z,-97
2019-05-29T05:11:59.184Z,-149
2019-05-29T05:12:29.628Z,-151
2019-05-29T05:12:59.406Z,-116
2019-05-29T05:14:29.636Z,-91
2019-05-29T05:14:59.561Z,-88
2019-05-29T05:15:29.596Z,-87
2019-05-29T05:15:59.376Z,-87
2019-05-29T05:16:29.762Z,-82
2019-05-29T05:16:59.486Z,-82
2019-05-29T05:17:29.721Z,-84
2019-05-29T05:17:59.586Z,-81
2019-05-29T05:18:29.810Z,-78
2019-05-29T05:18:59.471Z,-80
2019-05-29T05:19:29.751Z,-78
2019-05-29T05:19:59.473Z,-73
2019-05-29T05:20:29.925Z,-76
2019-05-29T05:20:59.508Z,-73
2019-05-29T05:21:29.829Z,-71
2019-05-29T05:21:59.443Z,-70
2019-05-29T05:22:29.963Z,79
2019-05-29T05:22:59.517Z,-74
2019-05-29T05:23:30.049Z,-70
2019-05-29T05:23:59.484Z,-67
2019-05-29T05:24:30.135Z,-65
2019-05-29T05:24:59.632Z,-63
2019-05-29T05:25:30.004Z,-63
2019-05-29T05:26:02.119Z,-62
2019-05-29T05:26:30.040Z,-60
2019-05-29T05:26:59.636Z,-58
2019-05-29T05:27:30.093Z,-59
2019-05-29T05:27:59.705Z,-59
2019-05-29T05:28:30.351Z,-59
2019-05-29T05:28:59.889Z,-151
2019-05-29T05:29:30.124Z,-123
2019-05-29T05:29:59.844Z,-98
2019-05-29T05:30:30.362Z,-71
2019-05-29T05:30:59.824Z,-70
2019-05-29T05:31:30.297Z,-53
2019-05-29T05:31:59.763Z,-53
2019-05-29T05:32:30.539Z,-52
2019-05-29T05:33:00.023Z,-71
2019-05-29T05:33:30.423Z,-72
2019-05-29T05:33:59.994Z,-66
2019-05-29T05:34:30.526Z,-60
2019-05-29T05:34:59.876Z,-51
2019-05-29T05:35:30.721Z,-52
2019-05-29T05:35:59.943Z,-46
2019-05-29T05:36:30.599Z,-46
2019-05-29T05:37:00.006Z,-47
2019-05-29T05:37:30.576Z,-45
2019-05-29T05:38:00.022Z,-45
2019-05-29T05:38:30.580Z,-43
2019-05-29T05:38:59.986Z,-44
2019-05-29T05:39:30.770Z,-41
2019-05-29T05:40:00.012Z,-42
2019-05-29T05:40:30.745Z,-41
2019-05-29T05:41:00.080Z,-38
2019-05-29T05:41:30.742Z,-42
2019-05-29T05:42:00.018Z,-40
2019-05-29T05:42:31.057Z,-41
2019-05-29T05:43:00.021Z,-38
2019-05-29T05:43:30.675Z,-35
2019-05-29T05:44:00.213Z,-37
2019-05-29T05:44:30.745Z,-54
2019-05-29T05:45:00.126Z,-46
2019-05-29T05:45:30.854Z,-47
2019-05-29T05:46:00.341Z,-160
2019-05-29T05:46:30.940Z,-120
2019-05-29T05:47:00.179Z,-80
2019-05-29T05:47:44.693Z,-49
2019-05-29T05:48:00.264Z,-29
2019-05-29T05:48:30.936Z,-21
2019-05-29T05:49:00.335Z,-20
2019-05-29T05:49:31.203Z,-15
2019-05-29T05:50:00.679Z,-12
2019-05-29T05:50:31.059Z,-16
2019-05-29T05:51:00.526Z,-13
2019-05-29T05:51:31.197Z,-9
2019-05-29T05:52:00.674Z,-8
2019-05-29T05:52:31.145Z,-7
2019-05-29T05:53:00.465Z,-6
2019-05-29T05:53:31.294Z,-2
2019-05-29T05:54:00.737Z,-4
2019-05-29T05:54:31.326Z,-3
2019-05-29T05:55:01.030Z,2
2019-05-29T05:55:31.455Z,5
2019-05-29T05:56:00.585Z,5
2019-05-29T05:56:31.367Z,8
2019-05-29T05:57:00.954Z,11
2019-05-29T05:57:31.533Z,11
2019-05-29T05:58:01.281Z,-7
2019-05-29T06:09:01.476Z,18
2019-05-29T06:10:01.689Z,15
2019-05-29T06:10:32.008Z,15
2019-05-29T06:11:01.468Z,16
2019-05-29T06:12:01.373Z,19
2019-05-29T06:13:32.135Z,28
2019-05-29T06:14:01.573Z,24
2019-05-29T06:14:32.303Z,23
2019-05-29T06:15:01.759Z,24
2019-05-29T06:15:32.328Z,22
2019-05-29T06:16:01.405Z,19
2019-05-29T06:16:32.597Z,16
2019-05-29T06:17:01.384Z,15
2019-05-29T06:17:32.314Z,12
2019-05-29T06:18:19.718Z,12
2019-05-29T06:18:32.346Z,9
2019-05-29T06:19:01.705Z,7
2019-05-29T06:19:32.729Z,5
2019-05-29T06:20:32.531Z,-116
2019-05-29T06:21:01.602Z,-90
2019-05-29T06:21:32.480Z,-113
2019-05-29T06:22:01.423Z,-46
2019-05-29T06:22:32.797Z,-34
2019-05-29T06:23:01.539Z,-27
2019-05-29T06:23:32.682Z,-33
2019-05-29T06:24:01.848Z,-37
2019-05-29T06:24:33.396Z,-35
2019-05-29T06:25:01.784Z,-35
2019-05-29T06:25:33.597Z,-38
2019-05-29T06:26:01.660Z,-39
2019-05-29T06:26:32.692Z,-41
2019-05-29T06:26:32.738Z,-39
2019-05-29T06:27:01.674Z,-41
2019-05-29T06:27:33.179Z,-40
2019-05-29T06:27:33.179Z,-40
2019-05-29T06:28:01.787Z,-39
2019-05-29T06:28:32.972Z,-33
2019-05-29T06:28:32.972Z,-36
2019-05-29T06:29:01.874Z,-36
2019-05-29T06:29:33.105Z,-35
2019-05-29T06:30:02.189Z,-31
2019-05-29T06:30:33.876Z,-28
2019-05-29T06:30:33.876Z,-29
2019-05-29T06:31:33.202Z,-23
2019-05-29T06:31:33.202Z,-27
2019-05-29T06:32:01.979Z,-36
2019-05-29T06:32:33.324Z,-9
2019-05-29T06:32:33.324Z,-19
2019-05-29T06:33:01.832Z,-7
2019-05-29T06:33:33.302Z,-6
2019-05-29T06:33:33.302Z,-4
2019-05-29T06:34:01.943Z,-5
2019-05-29T06:34:33.405Z,-1
2019-05-29T06:35:02.154Z,0
2019-05-29T06:35:33.993Z,-2
2019-05-29T06:36:02.059Z,4
2019-05-29T06:36:33.414Z,8
2019-05-29T06:36:33.415Z,4
2019-05-29T06:37:02.085Z,7
2019-05-29T06:37:33.428Z,-126
2019-05-29T06:37:33.428Z,7
2019-05-29T06:38:02.064Z,-97
2019-05-29T06:38:33.238Z,-52
2019-05-29T06:39:02.127Z,-52
2019-05-29T06:39:33.405Z,-11
2019-05-29T06:40:02.190Z,18
2019-05-29T06:40:33.756Z,17
2019-05-29T06:41:02.410Z,19
2019-05-29T06:41:33.547Z,17
2019-05-29T06:42:02.212Z,14
2019-05-29T06:42:32.158Z,4
2019-05-29T06:43:02.150Z,11
2019-05-29T06:43:33.439Z,12
2019-05-29T06:44:02.255Z,14
2019-05-29T06:44:32.254Z,14
2019-05-29T06:45:03.178Z,14
2019-05-29T06:45:32.287Z,15
2019-05-29T06:46:02.264Z,22
2019-05-29T06:46:32.364Z,25
2019-05-29T06:47:02.328Z,27
2019-05-29T06:47:32.289Z,21
2019-05-29T06:48:02.433Z,26
2019-05-29T06:48:41.154Z,30
2019-05-29T06:49:02.605Z,33
2019-05-29T06:49:32.388Z,29
2019-05-29T06:50:02.460Z,30
2019-05-29T06:50:32.473Z,40
2019-05-29T06:51:02.467Z,34
2019-05-29T06:51:32.508Z,8
2019-05-29T06:52:02.710Z,-112
2019-05-29T06:52:32.870Z,-111
2019-05-29T06:53:02.901Z,-123
2019-05-29T06:53:32.725Z,-141
2019-05-29T06:54:02.591Z,-130
2019-05-29T06:54:32.558Z,-309
2019-05-29T06:55:02.532Z,-249
2019-05-29T06:55:32.715Z,-244
2019-05-29T06:56:03.224Z,-130
2019-05-29T06:56:32.862Z,-84
2019-05-29T06:57:02.876Z,-78
2019-05-29T06:57:32.773Z,-80
2019-05-29T06:58:02.887Z,-78
2019-05-29T06:58:32.667Z,-70
2019-05-29T06:59:02.754Z,-73
2019-05-29T06:59:32.818Z,-87
2019-05-29T07:00:02.883Z,-87
2019-05-29T07:00:35.460Z,-85
2019-05-29T07:01:03.259Z,-74
2019-05-29T07:01:32.977Z,-74
2019-05-29T07:02:02.889Z,-66
2019-05-29T07:02:32.796Z,-69
2019-05-29T07:03:02.889Z,-71
2019-05-29T07:03:33.139Z,-88
2019-05-29T07:04:11.663Z,-87
2019-05-29T07:04:32.835Z,-128
2019-05-29T07:05:02.844Z,-102
2019-05-29T07:05:32.932Z,-68
2019-05-29T07:06:02.938Z,-68
2019-05-29T07:06:32.892Z,-61
2019-05-29T07:07:02.983Z,-83
2019-05-29T07:07:32.999Z,-76
2019-05-29T07:08:17.748Z,-64
2019-05-29T07:08:38.595Z,-72
2019-05-29T07:09:03.000Z,-62
2019-05-29T07:09:32.994Z,-60
2019-05-29T07:10:03.020Z,-66
2019-05-29T07:10:33.109Z,-70
2019-05-29T07:11:03.025Z,-73
2019-05-29T07:11:33.171Z,-290
2019-05-29T07:12:03.287Z,-288
2019-05-29T07:12:33.390Z,-176
2019-05-29T07:13:03.435Z,-112
2019-05-29T07:14:03.196Z,-50
2019-05-29T07:14:33.400Z,-48
2019-05-29T07:15:03.254Z,-69
2019-05-29T07:15:33.382Z,-76
2019-05-29T07:16:03.422Z,-82
2019-05-29T07:16:43.492Z,-95
2019-05-29T07:17:03.492Z,-110
2019-05-29T07:17:33.531Z,-111
2019-05-29T07:18:03.311Z,-112
2019-05-29T07:18:33.331Z,-110